Time;durP1;ratioP1;P1;durP2;ratioP2;P2;SDS_P1;SDS_P2;PMS_P1;PMS_P2;Temp;Humidity;BMP_temperature;BMP_pressure;BME280_temperature;BME280_humidity;BME280_pressure;Samples;Min_cycle;Max_cycle;Signal;HPM_P1;HPM_P2
2022/11/23 00:02:24;;;;;;;20.97;10.07;;;8.00;99.90;;;;;;5072901;28;20025;-83
2022/11/23 00:04:50;;;;;;;15.83;9.37;;;8.00;99.90;;;;;;5074571;28;20082;-78
2022/11/23 00:07:16;;;;;;;26.30;10.60;;;8.00;99.90;;;;;;5072438;28;20027;-83
2022/11/23 00:09:41;;;;;;;24.40;11.07;;;7.90;99.90;;;;;;5072548;28;20024;-84
2022/11/23 00:12:07;;;;;;;29.33;11.07;;;7.90;99.90;;;;;;5070750;28;20423;-80
2022/11/23 00:14:33;;;;;;;24.97;11.00;;;7.90;99.90;;;;;;5067915;28;20032;-82
2022/11/23 00:16:59;;;;;;;24.73;11.03;;;7.90;99.90;;;;;;5068226;28;20439;-78
2022/11/23 00:19:24;;;;;;;25.57;10.83;;;7.90;99.90;;;;;;5054425;28;20119;-78
2022/11/23 00:21:50;;;;;;;22.17;11.13;;;7.90;99.90;;;;;;5044251;28;20030;-85
2022/11/23 00:24:16;;;;;;;25.17;10.47;;;7.90;99.90;;;;;;5052197;28;20035;-80
2022/11/23 00:26:41;;;;;;;28.47;11.43;;;7.90;99.90;;;;;;5049581;28;20028;-83
2022/11/23 00:29:07;;;;;;;25.97;11.87;;;8.00;99.90;;;;;;5050566;28;20029;-80
2022/11/23 00:31:33;;;;;;;29.70;12.13;;;8.00;99.90;;;;;;5050322;28;20339;-87
2022/11/23 00:33:58;;;;;;;28.03;13.10;;;8.00;99.90;;;;;;5053461;28;20028;-84
2022/11/23 00:36:26;;;;;;;29.00;13.13;;;8.00;99.90;;;;;;5059384;28;20455;-88
2022/11/23 00:38:56;;;;;;;25.15;12.07;;;7.90;99.90;;;;;;5057276;28;20033;-79
2022/11/23 00:41:24;;;;;;;29.88;12.88;;;8.00;99.90;;;;;;5049686;28;20025;-85
2022/11/23 00:43:50;;;;;;;34.15;13.07;;;8.00;99.90;;;;;;5047881;28;20029;-88
2022/11/23 00:46:21;;;;;;;27.80;13.17;;;7.90;99.90;;;;;;5067956;28;20092;-80
2022/11/23 00:48:49;;;;;;;32.47;12.95;;;7.90;99.90;;;;;;5055596;28;20083;-85
2022/11/23 00:51:18;;;;;;;29.63;13.68;;;7.90;99.90;;;;;;5060018;28;20028;-83
2022/11/23 00:53:43;;;;;;;29.65;14.02;;;7.90;99.90;;;;;;5052018;28;20366;-85
2022/11/23 00:56:09;;;;;;;40.93;13.00;;;7.90;99.90;;;;;;5060987;28;20036;-78
2022/11/23 00:58:37;;;;;;;29.13;14.30;;;7.90;99.90;;;;;;5056944;28;20041;-77
2022/11/23 01:01:15;;;;;;;34.63;14.10;;;7.90;99.90;;;;;;5059089;28;20051;-85
2022/11/23 01:03:46;;;;;;;36.08;14.20;;;7.90;99.90;;;;;;5052831;28;20104;-81
2022/11/23 01:06:18;;;;;;;34.97;13.57;;;7.90;99.90;;;;;;5047214;28;20021;-78
2022/11/23 01:08:58;;;;;;;30.73;13.40;;;7.90;99.90;;;;;;5051669;28;20040;-78
2022/11/23 01:11:26;;;;;;;29.55;14.07;;;7.90;99.90;;;;;;5059663;28;20025;-88
2022/11/23 01:13:52;;;;;;;28.48;13.55;;;7.90;99.90;;;;;;5056895;28;20048;-76
2022/11/23 01:16:23;;;;;;;34.97;14.23;;;7.90;99.90;;;;;;5051662;28;20103;-79
2022/11/23 01:18:56;;;;;;;30.65;13.35;;;7.90;99.90;;;;;;5076621;28;20048;-77
2022/11/23 01:21:23;;;;;;;30.90;13.23;;;8.00;99.90;;;;;;5077929;28;20029;-78
2022/11/23 01:23:49;;;;;;;37.20;14.25;;;8.00;99.90;;;;;;5073587;28;20052;-78
2022/11/23 01:26:15;;;;;;;25.97;12.33;;;8.00;99.90;;;;;;5075613;28;20052;-81
2022/11/23 01:28:41;;;;;;;30.15;13.35;;;7.90;99.90;;;;;;5069378;28;20092;-79
2022/11/23 01:31:12;;;;;;;27.70;11.83;;;7.90;99.90;;;;;;5074962;28;20132;-77
2022/11/23 01:33:39;;;;;;;32.63;11.48;;;8.00;99.90;;;;;;5067051;28;20090;-77
2022/11/23 01:36:12;;;;;;;29.33;12.13;;;8.00;99.90;;;;;;5075584;28;20032;-82
2022/11/23 01:38:38;;;;;;;33.55;12.02;;;8.00;99.90;;;;;;5071767;28;20387;-77
2022/11/23 01:41:06;;;;;;;32.05;12.52;;;8.00;99.90;;;;;;5075264;28;20025;-82
2022/11/23 01:43:32;;;;;;;27.45;12.23;;;8.00;99.90;;;;;;5077738;28;20082;-83
2022/11/23 01:45:59;;;;;;;28.17;12.23;;;8.00;99.90;;;;;;5074695;28;20028;-83
2022/11/23 01:48:27;;;;;;;;;;;7.90;99.90;;;;;;5076856;28;20055;-82
2022/11/23 01:50:55;;;;;;;20.88;11.23;;;8.00;99.90;;;;;;5075458;28;20004;-79
2022/11/23 01:53:21;;;;;;;28.85;13.57;;;8.00;99.90;;;;;;5074996;28;20032;-81
2022/11/23 01:55:48;;;;;;;23.55;11.63;;;8.00;99.90;;;;;;5074097;28;20108;-81
2022/11/23 01:58:17;;;;;;;26.02;11.00;;;8.00;99.90;;;;;;5073988;28;20036;-79
2022/11/23 02:00:44;;;;;;;36.00;12.05;;;8.00;99.90;;;;;;5070505;28;20036;-80
2022/11/23 02:03:10;;;;;;;22.52;11.70;;;8.00;99.90;;;;;;5073576;28;20107;-83
2022/11/23 02:05:42;;;;;;;25.58;11.75;;;8.00;99.90;;;;;;5075292;28;20296;-80
2022/11/23 02:08:10;;;;;;;22.98;11.27;;;8.00;99.90;;;;;;5075122;28;20051;-81
2022/11/23 02:10:36;;;;;;;25.65;12.45;;;7.90;99.90;;;;;;5074958;28;20024;-77
2022/11/23 02:13:07;;;;;;;28.60;12.40;;;7.90;99.90;;;;;;5074428;28;20021;-81
2022/11/23 02:15:34;;;;;;;27.63;12.18;;;7.90;99.90;;;;;;5075882;28;20021;-78
2022/11/23 02:18:03;;;;;;;30.05;12.38;;;7.90;99.90;;;;;;5068175;28;20041;-81
2022/11/23 02:20:29;;;;;;;31.02;11.25;;;7.90;99.90;;;;;;5048622;28;20029;-78
2022/11/23 02:23:04;;;;;;;29.25;11.77;;;7.90;99.90;;;;;;5056578;28;20327;-83
2022/11/23 02:25:36;;;;;;;22.77;10.80;;;7.80;99.90;;;;;;5046949;28;20424;-77
2022/11/23 02:28:02;;;;;;;23.83;10.27;;;7.90;99.90;;;;;;5047427;28;20061;-81
2022/11/23 02:30:30;;;;;;;24.47;11.07;;;7.90;99.90;;;;;;5064133;28;20056;-81
2022/11/23 02:32:56;;;;;;;25.48;9.52;;;7.90;99.90;;;;;;5050420;28;20029;-76
2022/11/23 02:35:22;;;;;;;24.70;11.18;;;7.90;99.90;;;;;;5041258;28;20321;-80
2022/11/23 02:37:50;;;;;;;28.20;9.77;;;7.90;99.90;;;;;;5055235;28;20049;-78
2022/11/23 02:40:27;;;;;;;23.33;9.63;;;7.90;99.90;;;;;;5051721;28;20111;-82
2022/11/23 02:42:53;;;;;;;26.33;9.68;;;7.90;99.90;;;;;;5054109;28;20105;-82
2022/11/23 02:45:35;;;;;;;28.33;10.07;;;7.90;99.90;;;;;;5055517;28;20104;-78
2022/11/23 02:48:01;;;;;;;28.83;10.27;;;7.90;99.90;;;;;;5044755;28;20048;-79
2022/11/23 02:50:27;;;;;;;24.43;8.73;;;7.80;99.90;;;;;;5047637;28;20100;-78
2022/11/23 02:52:53;;;;;;;33.53;10.57;;;7.80;99.90;;;;;;5050374;28;20178;-78
2022/11/23 02:55:18;;;;;;;18.13;9.53;;;7.80;99.90;;;;;;5056094;28;20037;-79
2022/11/23 02:57:44;;;;;;;25.80;9.90;;;7.90;99.90;;;;;;5037609;28;20440;-77
2022/11/23 03:00:11;;;;;;;29.10;10.03;;;7.90;99.90;;;;;;5045869;28;20083;-80
2022/11/23 03:02:36;;;;;;;23.38;9.23;;;7.80;99.90;;;;;;5048580;28;20447;-83
2022/11/23 03:05:02;;;;;;;21.63;9.03;;;7.80;99.90;;;;;;5047861;28;20037;-81
2022/11/23 03:07:28;;;;;;;20.33;10.20;;;7.80;99.90;;;;;;5049652;28;20036;-79
2022/11/23 03:09:53;;;;;;;23.30;9.53;;;7.90;99.90;;;;;;5051030;28;20040;-83
2022/11/23 03:12:19;;;;;;;28.57;10.27;;;7.90;99.90;;;;;;5050508;28;20037;-81
2022/11/23 03:14:44;;;;;;;22.92;9.45;;;7.90;99.90;;;;;;5051711;28;20452;-78
2022/11/23 03:17:10;;;;;;;22.23;9.70;;;7.90;99.90;;;;;;5049574;28;20132;-82
2022/11/23 03:19:36;;;;;;;22.90;10.43;;;7.90;99.90;;;;;;5068977;28;20115;-83
2022/11/23 03:22:03;;;;;;;21.60;9.93;;;7.90;99.90;;;;;;5071134;28;20031;-83
2022/11/23 03:24:29;;;;;;;23.25;10.13;;;7.90;99.90;;;;;;5077150;28;20016;-77
2022/11/23 03:26:54;;;;;;;24.45;10.82;;;7.90;99.90;;;;;;5075341;28;20028;-84
2022/11/23 03:29:24;;;;;;;20.80;10.20;;;7.90;99.90;;;;;;5078107;28;20115;-79
2022/11/23 03:31:50;;;;;;;25.60;11.27;;;7.80;99.90;;;;;;5074871;28;20032;-79
2022/11/23 03:34:15;;;;;;;26.73;11.10;;;7.80;99.90;;;;;;5094662;28;20024;-80
2022/11/23 03:36:41;;;;;;;17.90;10.33;;;7.80;99.90;;;;;;5093118;28;20419;-77
2022/11/23 03:39:10;;;;;;;29.67;10.00;;;7.80;99.90;;;;;;5092271;28;20024;-80
2022/11/23 03:41:36;;;;;;;23.05;9.70;;;7.80;99.90;;;;;;5095135;28;20411;-84
2022/11/23 03:44:02;;;;;;;23.67;10.43;;;7.80;99.90;;;;;;5071084;28;20028;-81
2022/11/23 03:46:28;;;;;;;22.83;10.65;;;7.80;99.90;;;;;;5075819;28;20031;-80
2022/11/23 03:48:53;;;;;;;20.83;10.57;;;7.80;99.90;;;;;;5075857;28;20324;-83
2022/11/23 03:51:19;;;;;;;28.00;10.60;;;7.80;99.90;;;;;;5091744;28;20024;-82
2022/11/23 03:53:45;;;;;;;24.88;10.82;;;7.80;99.90;;;;;;5072606;28;20039;-78
2022/11/23 03:56:10;;;;;;;24.97;10.30;;;7.70;99.90;;;;;;5090506;28;20028;-81
2022/11/23 03:58:36;;;;;;;26.97;10.77;;;7.70;99.90;;;;;;5072491;28;20028;-81
2022/11/23 04:01:02;;;;;;;23.53;11.80;;;7.60;99.90;;;;;;5092051;28;20028;-79
2022/11/23 04:03:28;;;;;;;32.65;12.13;;;7.60;99.90;;;;;;5091433;28;20103;-79
2022/11/23 04:05:53;;;;;;;25.87;12.20;;;7.70;99.90;;;;;;5089226;28;20020;-82
2022/11/23 04:08:19;;;;;;;25.25;11.50;;;7.70;99.90;;;;;;5088149;28;20024;-78
2022/11/23 04:10:45;;;;;;;21.92;10.98;;;7.70;99.90;;;;;;5083749;28;20031;-79
2022/11/23 04:13:11;;;;;;;24.10;12.95;;;7.70;99.90;;;;;;5082369;28;20423;-84
2022/11/23 04:15:36;;;;;;;25.20;11.02;;;7.70;99.90;;;;;;5080955;28;20023;-85
2022/11/23 04:18:02;;;;;;;27.30;11.43;;;7.70;99.90;;;;;;5053844;28;20045;-82
2022/11/23 04:20:28;;;;;;;27.73;10.83;;;7.70;99.90;;;;;;5051505;28;20035;-83
2022/11/23 04:22:54;;;;;;;23.33;10.35;;;7.70;99.90;;;;;;5048726;28;20072;-79
2022/11/23 04:25:19;;;;;;;22.17;11.02;;;7.80;99.90;;;;;;5048175;28;20017;-80
2022/11/23 04:27:45;;;;;;;24.77;11.07;;;7.80;99.90;;;;;;5052126;28;20770;-82
2022/11/23 04:30:11;;;;;;;22.07;10.77;;;7.80;99.90;;;;;;5050707;28;20071;-79
2022/11/23 04:32:37;;;;;;;23.50;10.13;;;7.80;99.90;;;;;;5052776;28;20079;-81
2022/11/23 04:35:03;;;;;;;18.55;10.63;;;7.80;99.90;;;;;;5042092;28;20055;-82
2022/11/23 04:37:29;;;;;;;20.65;10.15;;;7.90;99.90;;;;;;5048314;28;20032;-81
2022/11/23 04:39:54;;;;;;;17.20;9.50;;;7.80;99.90;;;;;;5049032;28;20444;-81
2022/11/23 04:42:20;;;;;;;18.60;9.10;;;7.80;99.90;;;;;;5051704;28;20070;-79
2022/11/23 04:44:46;;;;;;;21.13;9.80;;;7.80;99.90;;;;;;5054009;28;20147;-84
2022/11/23 04:47:12;;;;;;;21.23;9.23;;;7.90;99.90;;;;;;5052352;28;20029;-80
2022/11/23 04:49:38;;;;;;;22.53;9.37;;;7.90;99.90;;;;;;5053624;28;20056;-84
2022/11/23 04:52:04;;;;;;;16.52;8.85;;;7.80;99.90;;;;;;5053389;28;20383;-82
2022/11/23 04:54:30;;;;;;;19.95;9.60;;;7.80;99.90;;;;;;5067398;28;20140;-78
2022/11/23 04:56:56;;;;;;;19.30;9.40;;;7.80;99.90;;;;;;5061475;28;20119;-84
2022/11/23 04:59:22;;;;;;;22.07;9.53;;;7.80;99.90;;;;;;5047993;28;20096;-81
2022/11/23 05:01:48;;;;;;;22.13;9.30;;;7.80;99.90;;;;;;5052127;28;20127;-80
2022/11/23 05:04:14;;;;;;;22.20;8.75;;;7.70;99.90;;;;;;5052757;28;20051;-79
2022/11/23 05:06:40;;;;;;;18.60;8.63;;;7.70;99.90;;;;;;5053047;28;20148;-83
2022/11/23 05:09:05;;;;;;;24.40;9.47;;;7.70;99.90;;;;;;5046835;28;20037;-79
2022/11/23 05:11:31;;;;;;;17.95;9.52;;;7.70;99.90;;;;;;5050338;28;20037;-80
2022/11/23 05:13:57;;;;;;;20.52;9.02;;;7.70;99.90;;;;;;5054252;28;20090;-86
2022/11/23 05:16:22;;;;;;;17.73;9.07;;;7.70;99.90;;;;;;5052494;28;20040;-83
2022/11/23 05:18:48;;;;;;;23.13;8.90;;;7.70;99.90;;;;;;5091952;28;20060;-79
2022/11/23 05:21:13;;;;;;;15.03;8.43;;;7.70;99.90;;;;;;5093237;28;20082;-84
2022/11/23 05:23:39;;;;;;;18.10;8.73;;;7.70;99.90;;;;;;5094086;28;20054;-83
2022/11/23 05:26:05;;;;;;;18.43;8.67;;;7.70;99.90;;;;;;5075851;28;20032;-78
2022/11/23 05:28:30;;;;;;;17.37;8.90;;;7.70;99.90;;;;;;5074227;28;20034;-79
2022/11/23 05:30:56;;;;;;;23.00;9.05;;;7.80;99.90;;;;;;5074669;28;20339;-81
2022/11/23 05:33:22;;;;;;;20.30;7.63;;;7.80;99.90;;;;;;5073962;28;20043;-82
2022/11/23 05:35:47;;;;;;;16.57;8.03;;;7.80;99.90;;;;;;5075826;28;20131;-80
2022/11/23 05:38:13;;;;;;;17.10;7.87;;;7.80;99.90;;;;;;5087440;28;20024;-84
2022/11/23 05:40:39;;;;;;;20.70;8.60;;;7.80;99.90;;;;;;5090830;28;20104;-82
2022/11/23 05:43:04;;;;;;;20.83;8.60;;;7.70;99.90;;;;;;5073587;28;20327;-84
2022/11/23 05:45:30;;;;;;;15.93;7.82;;;7.70;99.90;;;;;;5092906;28;20475;-78
2022/11/23 05:47:58;;;;;;;16.88;7.80;;;7.70;99.90;;;;;;5076432;28;20024;-80
2022/11/23 05:50:26;;;;;;;14.43;7.07;;;7.70;99.90;;;;;;5091110;28;20012;-78
2022/11/23 05:52:51;;;;;;;17.80;8.15;;;7.60;99.90;;;;;;5092818;28;20024;-80
2022/11/23 05:55:17;;;;;;;12.53;6.53;;;7.70;99.90;;;;;;5073725;28;20043;-82
2022/11/23 05:57:43;;;;;;;15.27;6.33;;;7.60;99.90;;;;;;5093157;28;20028;-80
2022/11/23 06:00:09;;;;;;;14.10;6.10;;;7.60;99.90;;;;;;5091365;28;20426;-83
2022/11/23 06:02:36;;;;;;;18.17;7.70;;;7.60;99.90;;;;;;5076625;28;20038;-82
2022/11/23 06:05:02;;;;;;;15.20;7.45;;;7.60;99.90;;;;;;5095885;28;20039;-79
2022/11/23 06:07:28;;;;;;;14.47;6.47;;;7.60;99.90;;;;;;5076571;28;20032;-83
2022/11/23 06:09:53;;;;;;;16.93;7.03;;;7.60;99.90;;;;;;5093858;28;20024;-79
2022/11/23 06:12:19;;;;;;;12.43;7.22;;;7.60;99.90;;;;;;5093607;28;20035;-82
2022/11/23 06:14:45;;;;;;;16.37;8.23;;;7.70;99.90;;;;;;5058591;28;20039;-82
2022/11/23 06:17:10;;;;;;;16.67;7.00;;;7.60;99.90;;;;;;5079162;28;20055;-78
2022/11/23 06:19:36;;;;;;;15.77;7.77;;;7.60;99.90;;;;;;5077576;28;20028;-80
2022/11/23 06:22:02;;;;;;;12.35;6.95;;;7.50;99.90;;;;;;5078964;28;20028;-83
2022/11/23 06:24:27;;;;;;;15.63;7.60;;;7.40;99.90;;;;;;5092136;28;20146;-80
2022/11/23 06:26:54;;;;;;;16.30;8.60;;;7.40;99.90;;;;;;5096409;28;20113;-80
2022/11/23 06:29:20;;;;;;;16.88;7.32;;;7.30;99.90;;;;;;5079213;28;20026;-78
2022/11/23 06:31:46;;;;;;;15.67;6.83;;;7.40;99.90;;;;;;5096609;28;20044;-83
2022/11/23 06:34:12;;;;;;;21.13;7.30;;;7.30;99.90;;;;;;5093651;28;20322;-79
2022/11/23 06:36:38;;;;;;;16.63;7.70;;;7.30;99.90;;;;;;5077406;28;20028;-80
2022/11/23 06:39:04;;;;;;;20.77;7.45;;;7.30;99.90;;;;;;5077366;28;20322;-84
2022/11/23 06:41:29;;;;;;;20.90;7.20;;;7.20;99.90;;;;;;5088858;28;20345;-78
2022/11/23 06:43:55;;;;;;;13.57;7.00;;;7.20;99.90;;;;;;5092779;28;20028;-80
2022/11/23 06:46:21;;;;;;;13.25;7.43;;;7.20;99.90;;;;;;5073983;28;20102;-84
2022/11/23 06:48:47;;;;;;;17.50;7.23;;;7.10;99.90;;;;;;5079000;28;20028;-83
2022/11/23 06:51:13;;;;;;;18.55;7.18;;;7.10;99.90;;;;;;5090306;28;20115;-80
2022/11/23 06:53:39;;;;;;;20.83;7.00;;;7.20;99.90;;;;;;5096651;28;20109;-79
2022/11/23 06:56:05;;;;;;;22.77;7.78;;;7.20;99.90;;;;;;5093970;28;20484;-77
2022/11/23 06:58:31;;;;;;;18.10;7.25;;;7.20;99.90;;;;;;5096561;28;20035;-82
2022/11/23 07:01:01;;;;;;;14.77;6.15;;;7.10;99.90;;;;;;5093417;28;20070;-78
2022/11/23 07:03:27;;;;;;;18.10;7.00;;;7.00;99.90;;;;;;5096472;28;20024;-81
2022/11/23 07:05:54;;;;;;;23.60;8.50;;;7.00;99.90;;;;;;5096179;28;20047;-78
2022/11/23 07:08:20;;;;;;;20.40;7.93;;;7.00;99.90;;;;;;5091924;28;20437;-83
2022/11/23 07:10:46;;;;;;;26.10;9.13;;;6.90;99.90;;;;;;5091427;28;20032;-79
2022/11/23 07:13:13;;;;;;;22.67;9.55;;;6.90;99.90;;;;;;5092904;28;20020;-79
2022/11/23 07:15:39;;;;;;;26.50;8.98;;;6.90;99.90;;;;;;5089447;28;20032;-77
2022/11/23 07:18:05;;;;;;;15.93;8.03;;;6.80;99.90;;;;;;5086506;28;20044;-78
2022/11/23 07:20:32;;;;;;;15.32;6.78;;;6.90;99.90;;;;;;5077577;28;20043;-80
2022/11/23 07:22:59;;;;;;;21.77;7.55;;;7.00;99.90;;;;;;5092323;28;20044;-80
2022/11/23 07:25:25;;;;;;;16.08;6.68;;;7.00;99.90;;;;;;5071207;28;20024;-79
2022/11/23 07:27:56;;;;;;;14.27;7.07;;;7.00;99.90;;;;;;5094795;28;20029;-78
2022/11/23 07:30:22;;;;;;;12.88;5.78;;;7.00;99.90;;;;;;5087705;28;20047;-80
2022/11/23 07:32:48;;;;;;;20.17;5.90;;;7.00;99.90;;;;;;5071216;28;20035;-78
2022/11/23 07:35:13;;;;;;;12.30;5.20;;;7.00;99.90;;;;;;5093815;28;20035;-81
2022/11/23 07:37:39;;;;;;;14.15;4.40;;;7.00;99.90;;;;;;5056626;28;20036;-81
2022/11/23 07:40:06;;;;;;;29.23;4.53;;;7.10;99.90;;;;;;5087927;28;20078;-80
2022/11/23 07:42:31;;;;;;;15.70;4.75;;;7.10;99.90;;;;;;5089922;28;20052;-82
2022/11/23 07:44:57;;;;;;;15.35;3.88;;;7.10;99.90;;;;;;5093215;28;20063;-79
2022/11/23 07:47:22;;;;;;;13.00;3.27;;;7.20;99.90;;;;;;5087971;28;20029;-79
2022/11/23 07:49:48;;;;;;;19.43;3.63;;;7.20;99.90;;;;;;5095217;28;20043;-78
2022/11/23 07:52:14;;;;;;;7.00;2.50;;;7.30;99.90;;;;;;5086677;28;20107;-81
2022/11/23 07:54:39;;;;;;;9.63;2.70;;;7.30;99.90;;;;;;5092605;28;20411;-81
2022/11/23 07:57:05;;;;;;;13.73;2.60;;;7.30;99.90;;;;;;5070718;28;20036;-79
2022/11/23 07:59:31;;;;;;;15.20;2.37;;;7.30;99.90;;;;;;5072185;28;20150;-79
2022/11/23 08:01:56;;;;;;;12.70;2.47;;;7.30;99.90;;;;;;5065141;28;20024;-79
2022/11/23 08:04:22;;;;;;;15.13;2.65;;;7.30;99.90;;;;;;5065992;28;20486;-85
2022/11/23 08:06:48;;;;;;;15.73;2.50;;;7.40;99.90;;;;;;5068281;28;20033;-84
2022/11/23 08:09:14;;;;;;;8.57;2.47;;;7.40;99.90;;;;;;5079645;28;20021;-83
2022/11/23 08:11:39;;;;;;;8.93;2.43;;;7.40;99.90;;;;;;5086243;28;20081;-82
2022/11/23 08:14:05;;;;;;;29.17;3.38;;;7.40;99.90;;;;;;5087916;28;20407;-83
2022/11/23 08:16:31;;;;;;;11.40;2.13;;;7.50;99.90;;;;;;5050567;28;20377;-78
2022/11/23 08:18:57;;;;;;;16.70;2.50;;;7.50;99.90;;;;;;5081718;28;20418;-89
2022/11/23 08:21:22;;;;;;;12.83;2.70;;;7.50;99.90;;;;;;5063611;28;20423;-82
2022/11/23 08:23:48;;;;;;;14.30;1.93;;;7.60;99.90;;;;;;5064658;28;20055;-82
2022/11/23 08:26:13;;;;;;;20.17;1.93;;;7.60;99.90;;;;;;5078571;28;20403;-82
2022/11/23 08:28:39;;;;;;;7.50;1.92;;;7.60;99.90;;;;;;5076922;28;20482;-85
2022/11/23 08:31:10;;;;;;;16.80;2.17;;;7.70;99.90;;;;;;5067459;28;20111;-78
2022/11/23 08:33:36;;;;;;;9.52;2.03;;;7.70;99.90;;;;;;5083456;28;20051;-81
2022/11/23 08:36:06;;;;;;;14.93;2.83;;;7.70;99.90;;;;;;5086149;28;20311;-80
2022/11/23 08:38:33;;;;;;;11.60;2.17;;;7.80;99.90;;;;;;5062944;28;20032;-80
2022/11/23 08:41:00;;;;;;;6.43;1.58;;;7.80;99.90;;;;;;5082257;28;20319;-78
2022/11/23 08:43:26;;;;;;;11.43;2.30;;;7.80;99.90;;;;;;5078572;28;20055;-79
2022/11/23 08:45:59;;;;;;;6.93;1.55;;;7.90;99.90;;;;;;5081877;28;20360;-80
2022/11/23 08:48:25;;;;;;;15.20;1.70;;;7.90;99.90;;;;;;5079254;28;20029;-82
2022/11/23 08:50:51;;;;;;;14.00;2.97;;;7.90;99.90;;;;;;5071031;28;20024;-82
2022/11/23 08:53:17;;;;;;;13.18;2.03;;;7.90;99.90;;;;;;5091632;28;20059;-80
2022/11/23 08:55:43;;;;;;;13.95;1.60;;;7.90;99.90;;;;;;5093060;28;20064;-80
2022/11/23 08:58:08;;;;;;;8.40;2.27;;;8.00;99.90;;;;;;5094424;28;20376;-79
2022/11/23 09:00:34;;;;;;;9.00;2.50;;;8.00;99.90;;;;;;5092461;28;20016;-77
2022/11/23 09:03:00;;;;;;;13.07;3.17;;;8.00;99.90;;;;;;5074714;28;20043;-78
2022/11/23 09:05:27;;;;;;;17.58;2.58;;;8.00;99.90;;;;;;5066105;28;20031;-79
2022/11/23 09:07:53;;;;;;;13.93;2.00;;;8.00;99.90;;;;;;5075026;28;20020;-78
2022/11/23 09:10:19;;;;;;;16.45;2.13;;;8.00;99.90;;;;;;5091562;28;20032;-78
2022/11/23 09:12:48;;;;;;;11.23;1.93;;;8.00;99.90;;;;;;5069757;28;20308;-78
2022/11/23 09:15:14;;;;;;;11.73;2.05;;;8.00;99.90;;;;;;5089004;28;20031;-78
2022/11/23 09:17:40;;;;;;;11.88;2.38;;;8.10;99.90;;;;;;5089720;28;20043;-82
2022/11/23 09:20:06;;;;;;;56.05;15.60;;;8.10;99.90;;;;;;5059441;28;20039;-83
2022/11/23 09:22:32;;;;;;;15.25;6.93;;;8.20;99.90;;;;;;5092615;28;20028;-78
2022/11/23 09:24:57;;;;;;;13.97;3.87;;;8.30;99.90;;;;;;5065486;28;20028;-78
2022/11/23 09:27:23;;;;;;;16.87;7.33;;;8.40;99.90;;;;;;5089493;28;20077;-81
2022/11/23 09:29:49;;;;;;;15.67;6.30;;;8.40;99.90;;;;;;5072362;28;20020;-80
2022/11/23 09:32:15;;;;;;;22.48;5.65;;;8.50;99.90;;;;;;5093561;28;20363;-80
2022/11/23 09:34:40;;;;;;;17.48;5.85;;;8.60;99.90;;;;;;5075628;28;20320;-78
2022/11/23 09:37:06;;;;;;;23.63;13.87;;;8.70;99.90;;;;;;5075449;28;20028;-78
2022/11/23 09:39:32;;;;;;;12.60;6.77;;;8.70;99.90;;;;;;5094296;28;20024;-83
2022/11/23 09:42:20;;;;;;;16.33;4.40;;;8.80;99.90;;;;;;5097842;28;20028;-81
2022/11/23 09:44:54;;;;;;;20.65;3.78;;;8.80;99.90;;;;;;5079422;28;20028;-77
2022/11/23 09:47:23;;;;;;;17.80;4.97;;;8.80;99.90;;;;;;5092223;28;20026;-77
2022/11/23 09:49:49;;;;;;;13.18;5.07;;;8.90;99.90;;;;;;5095902;28;20085;-82
2022/11/23 09:52:18;;;;;;;9.93;3.87;;;8.80;99.90;;;;;;5093560;28;20407;-77
2022/11/23 09:54:47;;;;;;;12.80;2.63;;;8.80;99.90;;;;;;5078920;28;20032;-84
2022/11/23 09:57:18;;;;;;;17.33;2.78;;;8.80;99.90;;;;;;5095970;28;20024;-80
2022/11/23 09:59:53;;;;;;;12.27;2.40;;;8.90;99.90;;;;;;5079946;28;20028;-83
2022/11/23 10:02:25;;;;;;;30.13;15.32;;;8.90;99.90;;;;;;5097332;28;20030;-76
2022/11/23 10:04:53;;;;;;;10.65;3.88;;;8.90;99.90;;;;;;5095601;28;20042;-76
2022/11/23 10:07:51;;;;;;;15.85;3.20;;;9.00;99.90;;;;;;5096525;28;20016;-79
2022/11/23 10:10:26;;;;;;;16.23;3.63;;;9.10;99.90;;;;;;5090908;28;20030;-80
2022/11/23 10:13:16;;;;;;;13.15;3.63;;;9.10;99.90;;;;;;5093233;28;20020;-77
2022/11/23 10:16:03;;;;;;;10.38;3.00;;;9.20;99.90;;;;;;5071061;28;20367;-76
2022/11/23 10:18:38;;;;;;;24.38;3.55;;;9.30;99.90;;;;;;5092560;28;20036;-79
2022/11/23 10:21:19;;;;;;;8.18;3.63;;;9.30;99.90;;;;;;5093180;28;20426;-80
2022/11/23 10:24:04;;;;;;;4.35;2.03;;;9.30;99.90;;;;;;5090549;28;20039;-76
2022/11/23 10:26:36;;;;;;;17.15;2.53;;;9.30;99.90;;;;;;5090710;28;20016;-81
2022/11/23 10:29:14;;;;;;;7.18;1.90;;;9.40;99.90;;;;;;5096143;28;20036;-75
2022/11/23 10:31:45;;;;;;;8.60;2.70;;;9.40;99.90;;;;;;5096240;28;20024;-84
2022/11/23 10:34:14;;;;;;;10.80;4.20;;;9.50;99.90;;;;;;5078393;28;20031;-76
2022/11/23 10:36:40;;;;;;;21.50;4.38;;;9.50;99.90;;;;;;5089367;28;20020;-83
2022/11/23 10:39:32;;;;;;;20.90;2.25;;;9.50;99.90;;;;;;5095318;28;20390;-82
2022/11/23 10:42:03;;;;;;;9.68;2.05;;;9.60;99.90;;;;;;5088242;28;20036;-76
2022/11/23 10:44:35;;;;;;;10.25;1.77;;;9.60;99.90;;;;;;5082535;28;20078;-83
2022/11/23 10:47:00;;;;;;;7.47;1.83;;;9.60;99.90;;;;;;5094536;28;20153;-77
2022/11/23 10:49:33;;;;;;;8.17;1.20;;;9.60;99.90;;;;;;5095623;28;20099;-79
2022/11/23 10:52:05;;;;;;;11.88;1.65;;;9.70;99.90;;;;;;5096462;28;20078;-77
2022/11/23 10:54:45;;;;;;;5.75;1.52;;;9.70;99.90;;;;;;5093106;28;20028;-81
2022/11/23 10:57:26;;;;;;;9.68;1.80;;;9.60;99.90;;;;;;5092850;28;20020;-79
2022/11/23 11:00:09;;;;;;;8.43;1.85;;;9.70;99.90;;;;;;5067986;28;20422;-83
2022/11/23 11:02:47;;;;;;;8.50;1.75;;;9.70;99.90;;;;;;5072694;28;20064;-80
2022/11/23 11:05:35;;;;;;;11.25;2.03;;;9.70;99.90;;;;;;5090317;28;20024;-79
2022/11/23 11:08:22;;;;;;;11.07;2.25;;;9.70;99.90;;;;;;5094819;28;20020;-78
2022/11/23 11:11:07;;;;;;;13.18;2.65;;;9.80;99.90;;;;;;5072018;28;20123;-77
2022/11/23 11:13:45;;;;;;;8.90;1.80;;;9.80;99.90;;;;;;5092722;28;20027;-80
2022/11/23 11:16:36;;;;;;;9.32;2.22;;;9.80;99.90;;;;;;5073080;28;20024;-78
2022/11/23 11:19:28;;;;;;;19.48;2.83;;;9.80;99.90;;;;;;5063845;28;20300;-79
2022/11/23 11:21:55;;;;;;;22.85;8.40;;;9.70;99.90;;;;;;5094352;28;20039;-80
2022/11/23 11:24:26;;;;;;;;;;;9.50;99.90;;;;;;5096436;28;20020;-80
2022/11/23 11:26:57;;;;;;;17.48;2.50;;;9.50;99.90;;;;;;5095654;28;19908;-80
2022/11/23 11:29:47;;;;;;;33.65;17.35;;;9.30;99.90;;;;;;5095722;28;20020;-81
2022/11/23 11:32:25;;;;;;;15.45;8.05;;;9.30;99.90;;;;;;5088287;28;20066;-86
2022/11/23 11:34:59;;;;;;;9.82;2.75;;;9.20;99.90;;;;;;5094789;28;20039;-82
2022/11/23 11:37:31;;;;;;;11.18;5.72;;;9.20;99.90;;;;;;5057379;28;20028;-78
2022/11/23 11:40:01;;;;;;;12.07;3.63;;;9.20;99.90;;;;;;5081084;28;20063;-82
2022/11/23 11:42:35;;;;;;;14.15;2.58;;;9.20;99.90;;;;;;5093757;28;20048;-81
2022/11/23 11:45:03;;;;;;;9.73;2.85;;;9.20;99.90;;;;;;5082880;28;20342;-77
2022/11/23 11:47:44;;;;;;;13.30;2.08;;;9.20;99.90;;;;;;5073735;28;20027;-81
2022/11/23 11:50:33;;;;;;;7.78;1.88;;;9.20;99.90;;;;;;5074561;28;20445;-79
2022/11/23 11:53:10;;;;;;;9.27;1.90;;;9.30;99.90;;;;;;5092766;28;20114;-81
2022/11/23 11:55:47;;;;;;;14.50;1.65;;;9.30;99.90;;;;;;5071080;28;20514;-80
2022/11/23 11:58:15;;;;;;;8.05;1.52;;;9.30;99.90;;;;;;5072767;28;20032;-77
2022/11/23 12:00:42;;;;;;;13.02;2.70;;;9.40;99.90;;;;;;5090840;28;20415;-80
2022/11/23 12:03:26;;;;;;;8.88;1.67;;;9.30;99.90;;;;;;5075354;28;20036;-80
2022/11/23 12:05:54;;;;;;;5.78;1.55;;;9.40;99.90;;;;;;5091421;28;20028;-80
2022/11/23 12:08:29;;;;;;;11.68;2.45;;;9.40;99.90;;;;;;5091563;28;20020;-81
2022/11/23 12:10:58;;;;;;;10.70;2.28;;;9.40;99.90;;;;;;5093926;28;20111;-79
2022/11/23 12:13:31;;;;;;;7.22;1.83;;;9.40;99.90;;;;;;5090726;28;20107;-81
2022/11/23 12:16:18;;;;;;;6.63;1.58;;;9.40;99.90;;;;;;5070386;28;20020;-82
2022/11/23 12:19:07;;;;;;;6.70;1.70;;;9.40;99.90;;;;;;5082608;28;20044;-76
2022/11/23 12:22:01;;;;;;;10.95;1.95;;;9.50;99.90;;;;;;5092758;28;20175;-81
2022/11/23 12:24:27;;;;;;;5.43;1.58;;;9.50;99.90;;;;;;5088189;28;20023;-77
2022/11/23 12:27:38;;;;;;;11.23;1.70;;;9.50;99.90;;;;;;5090807;28;20099;-77
2022/11/23 12:30:28;;;;;;;10.82;1.38;;;9.60;99.90;;;;;;5090493;28;20013;-80
2022/11/23 12:33:00;;;;;;;4.22;1.27;;;9.60;99.90;;;;;;5072336;28;20419;-79
2022/11/23 12:35:37;;;;;;;12.07;1.55;;;9.60;99.90;;;;;;5091219;28;20042;-75
2022/11/23 12:38:24;;;;;;;52.17;14.65;;;9.60;99.90;;;;;;5087306;28;20024;-80
2022/11/23 12:41:02;;;;;;;17.40;5.05;;;9.60;99.90;;;;;;5072867;28;20326;-84
2022/11/23 12:44:05;;;;;;;11.45;4.00;;;9.60;99.90;;;;;;5091590;28;20024;-87
2022/11/23 12:46:52;;;;;;;17.15;6.43;;;9.70;99.90;;;;;;5055961;28;20016;-80
2022/11/23 12:49:45;;;;;;;13.43;4.95;;;9.70;99.90;;;;;;5091483;28;20052;-78
2022/11/23 12:52:34;;;;;;;12.13;3.05;;;9.70;99.90;;;;;;5091560;28;20154;-80
2022/11/23 12:55:05;;;;;;;13.00;3.70;;;9.70;99.90;;;;;;5061290;28;20086;-79
2022/11/23 12:57:45;;;;;;;11.23;2.85;;;9.70;99.90;;;;;;5090431;28;20105;-81